Sitka Rocky Gutierrez, AK

6:59 AM AKDT on September 30, 2014 (GMT -0800)
Port Alexander | Change Station
CLOSE
Current Station
Airport
Location: Port Alexander,
Elevation: 0 ft
Nearby Weather Stations

Elev 0 ft 56.25 °N, 134.65 °W | Updated 12 hours ago

Rain
Rain
48 °F
Feels Like 48 °F
N
13
Wind Variable Wind from SW
Gusts 26 mph

Today
High -- | Low -- °F
--% Chance of Precip.
Yesterday
High -- | Low -- °F
Precip. -- in
7:03 AM 6:38 PM
Waxing Crescent, 37% visible
Pressure 29.75 in
Visibility 10.0 miles
Clouds Few 2000 ft
Mostly Cloudy 4500 ft
Dew Point 43 °F
Humidity 81%
Rainfall 0.00 in
Snow Depth 1 in , 1 in , 0 in
UV 0 out of 12
Pollen Not available.
Air Quality Not available.
Flu Activity Not available.
METAR PAAP 300253Z 00000KT 10SM FEW020 BKN045 10/09 A2975 RMK LAST NO SPECI

More Conditions Fewer Conditions

Pressure 29.75 in
Visibility 10.0 miles
Clouds Few 2000 ft
Mostly Cloudy 4500 ft
Dew Point 43 °F
Humidity 81%
Rainfall 0.00 in
Snow Depth 1 in , 1 in , 0 in
UV 0 out of 12
Pollen Not available.
Air Quality Not available.
Flu Activity Not available.
METAR PAAP 300253Z 00000KT 10SM FEW020 BKN045 10/09 A2975 RMK LAST NO SPECI

More Conditions Fewer Conditions

10-Day Weather Forecast

Almanac

Astronomy

Sep. 30, 2014 Rise Set
Actual Time 7:03 AM AKDT 6:38 PM AKDT
Civil Twilight 6:25 AM AKDT 7:16 PM AKDT
Nautical Twilight 5:40 AM AKDT 8:00 PM AKDT
Astronomical Twilight 4:53 AM AKDT 8:47 PM AKDT
Moon 2:13 PM AKDT 10:21 PM AKDT
Length of Visible Light 12h 50m
Length of Day
11h 34m
Tomorrow will be 4m 48s shorter.
Waxing Crescent, 37% of the Moon is Illuminated
Today
Waxing Crescent
Oct 1
First Quarter
Oct 8
Full
Oct 15
Last Quarter
Oct 23
New

Today's Extremes

State Highs State Lows

Community

WunderPhotos

Upload Photos

1,757,641 photos uploaded!

WunderBlogs® & News

By Dr. Jeff Masters
Director of Meteorology, Weather Underground
By Kari Strenfel
Meteorologist, Weather Underground
By Christopher C. Burt
Weather Historian, Weather Underground
September 30, 2014
September 30, 2014
September 30, 2014

Nearby

Snow Depth

Station Depth Elevation
Eagle Summit 1 in 3650 ft
MF Bradley River 1 in 2300 ft
Long Lake 0 in 820 ft
Atigun Pass 8 in 4800 ft
Granite Creek 0 in 1240 ft

Earthquake Activity

City Distance Mag. Time & Date
No recent earthquake activity has been reported nearby.
Minimum magnitude displayed is 2.5.

Coastal Water Temperatures

Place Temperature
No Stations Reporting

Nearby Weather Stations